Latest Weather Observations for Toowoomba

IDQ60801

Issued at 11:02 am EST Thursday 2 July 2015 (issued every 30 minutes, with the page automatically refreshed every 10 minutes)

About weather observations | Map of weather stations | Latest weather observations for QLD | Other Formats
Station Details ID: 041529 Name: TOOWOOMBA AIRPORT Lat: -27.54 Lon: 151.91 Height: 640.9 m
Data from the previous 72 hours. | See also: Recent months at Toowoomba
Date/Time
EST
Temp
°C
App
Temp
°C
Dew
Point
Rel
Hum
%
Delta-T
°C
Wind Press
QNH
hPa
Press
MSL
hPa
Rain
since 9 am
mm
Dir
 
Spd
km/h
Gust
km/h
Spd
kts
Gust
kts
02/11:00am 11.3 5.0 3.8 60 3.4 WSW 26 35 14 19 1024.0 1023.6 0.0
02/10:30am 10.5 4.5 5.3 70 2.5 WSW 26 33 14 18 1024.4 1024.0 0.0
02/10:00am 9.7 4.2 5.7 76 1.9 SW 24 32 13 17 1024.9 1024.6 0.0
02/09:30am 9.1 3.2 5.8 80 1.6 SW 26 35 14 19 1024.9 1024.6 0.0
02/09:00am 8.2 2.0 6.2 87 0.9 WSW 28 39 15 21 1025.4 1025.0 0.0
02/08:45am 8.1 3.1 6.4 89 0.8 WSW 22 30 12 16 1025.4 1025.0 0.0
02/08:30am 7.4 2.9 6.3 93 0.5 WSW 19 24 10 13 1024.9 1024.6 0.0
02/08:10am 7.4 3.0 6.5 94 0.4 SW 19 26 10 14 1024.4 1024.0 0.0
02/08:00am 7.2 2.8 6.6 96 0.3 SW 19 24 10 13 1024.2 1023.8 0.0
02/07:56am 7.2 2.9 6.8 97 0.2 SW 19 24 10 13 1024.2 1023.8 0.0
02/07:47am 6.9 2.5 6.5 97 0.2 SW 19 24 10 13 1024.4 1024.0 0.0
02/07:30am 7.0 3.0 6.6 97 0.2 SW 17 22 9 12 1024.5 1024.1 0.0
02/07:00am 6.9 2.9 6.5 97 0.2 SSW 17 24 9 13 1023.9 1023.5 0.0
02/06:38am 7.3 2.4 7.0 98 0.1 SSW 22 26 12 14 1023.8 1023.4 0.0
02/06:30am 7.4 2.6 7.3 99 0.0 SSW 22 30 12 16 1023.7 1023.3 0.0
02/06:14am 7.7 2.5 7.4 98 0.1 SW 24 32 13 17 1023.4 1023.0 0.0
02/06:00am 7.9 3.1 7.5 97 0.2 SW 22 28 12 15 1023.3 1022.9 0.0
02/05:30am 8.0 3.2 7.2 95 0.4 SW 22 33 12 18 1023.2 1022.8 0.0
02/05:16am 8.1 3.3 7.5 96 0.3 SW 22 30 12 16 1023.2 1022.8 0.0
02/05:00am 7.6 4.1 7.2 97 0.2 WSW 15 20 8 11 1023.1 1022.7 0.0
02/04:59am 7.5 3.9 6.9 96 0.3 WSW 15 19 8 10 1023.1 1022.7 0.0
02/04:30am 8.1 4.2 7.3 95 0.4 WSW 17 20 9 11 1023.6 1023.2 0.0
02/04:00am 8.6 4.2 7.5 93 0.5 WSW 20 26 11 14 1023.8 1023.4 0.0
02/03:30am 8.6 4.5 7.7 94 0.4 WSW 19 24 10 13 1023.9 1023.5 0.0
02/03:00am 8.4 4.6 7.6 95 0.4 WSW 17 22 9 12 1023.9 1023.5 0.0
02/02:30am 8.4 4.7 7.8 96 0.3 WSW 17 24 9 13 1023.9 1023.5 0.0
02/02:00am 8.4 4.7 8.1 98 0.1 WSW 17 26 9 14 1024.1 1023.7 0.0
02/01:30am 8.6 5.0 8.3 98 0.1 WSW 17 20 9 11 1024.4 1024.0 0.0
02/01:18am 8.8 5.2 8.4 97 0.2 WSW 17 26 9 14 1024.4 1024.0 0.0
02/01:00am 8.7 4.5 8.1 96 0.3 SW 20 24 11 13 1024.4 1024.0 0.0
02/12:54am 8.6 4.3 8.0 96 0.3 SW 20 28 11 15 1024.4 1024.0 0.0
02/12:30am 9.1 4.7 9.0 99 0.1 SW 22 32 12 17 1024.5 1024.1 0.0
02/12:22am 8.9 4.8 8.8 99 0.1 SW 20 28 11 15 1024.6 1024.2 0.0
02/12:01am 8.6 4.7 8.5 99 0.1 SW 19 26 10 14 1024.8 1024.5 0.0
02/12:00am 8.6 4.7 8.5 99 0.0 SW 19 26 10 14 1024.8 1024.5 0.0
 
Date/Time
EST
Temp
°C
App
Temp
°C
Dew
Point
Rel
Hum
%
Delta-T
°C
Wind Press
QNH
hPa
Press
MSL
hPa
Rain
since 9 am
mm
Dir
 
Spd
km/h
Gust
km/h
Spd
kts
Gust
kts
01/11:40pm 8.6 4.0 8.3 98 0.1 SW 22 28 12 15 1024.7 1024.3 0.0
01/11:36pm 8.7 4.5 8.4 98 0.2 SW 20 26 11 14 1024.7 1024.3 0.0
01/11:30pm 8.8 4.8 8.4 97 0.2 SW 19 24 10 13 1024.8 1024.5 0.0
01/11:00pm 9.5 5.2 9.2 98 0.2 SW 22 30 12 16 1025.0 1024.7 0.0
01/10:30pm 10.0 6.7 9.4 96 0.3 SW 17 20 9 11 1025.4 1025.0 0.0
01/10:00pm 10.3 6.6 9.4 94 0.5 SW 19 28 10 15 1025.7 1025.3 0.0
01/09:30pm 10.6 7.6 9.4 92 0.6 SW 15 22 8 12 1025.7 1025.3 0.0
01/09:00pm 10.0 7.6 8.6 91 0.7 WSW 11 13 6 7 1026.0 1025.6 0.0
01/08:30pm 10.3 8.8 9.2 93 0.6 W 7 9 4 5 1026.1 1025.7 0.0
01/08:25pm 10.1 8.6 9.2 94 0.5 W 7 9 4 5 1026.0 1025.6 0.0
01/08:00pm 9.6 7.9 8.4 92 0.6 W 7 9 4 5 1025.7 1025.3 0.0
01/07:30pm 9.8 7.7 8.2 90 0.8 W 9 13 5 7 1025.7 1025.3 0.0
01/07:00pm 9.9 7.8 8.2 89 0.8 WSW 9 13 5 7 1025.5 1025.1 0.0
01/06:30pm 10.3 8.2 8.2 87 1.1 WSW 9 15 5 8 1025.3 1024.9 0.0
01/06:00pm 11.0 8.6 8.6 85 1.2 W 11 15 6 8 1025.0 1024.7 0.0
01/05:30pm 11.2 8.7 8.2 82 1.5 W 11 17 6 9 1024.6 1024.2 0.0
01/05:00pm 12.2 9.3 8.3 77 2.0 WSW 13 20 7 11 1024.4 1024.0 0.0
01/04:30pm 13.3 9.5 9.0 75 2.2 WSW 19 28 10 15 1024.3 1023.9 0.0
01/04:00pm 14.0 9.6 9.0 72 2.6 WSW 22 32 12 17 1024.4 1024.0 0.0
01/03:30pm 15.9 11.9 8.9 63 3.7 SW 20 28 11 15 1024.1 1023.7 0.0
01/03:00pm 16.3 11.1 8.8 61 4.0 WSW 26 32 14 17 1024.0 1023.6 0.0
01/02:30pm 17.2 12.6 9.6 61 4.1 WSW 24 32 13 17 1024.0 1023.6 0.0
01/02:00pm 18.0 13.9 8.8 55 4.9 WSW 20 30 11 16 1024.1 1023.7 0.0
01/01:30pm 18.3 13.1 7.4 49 5.7 WSW 24 32 13 17 1024.2 1023.8 0.0
01/01:00pm 17.6 13.0 8.2 54 4.9 W 22 32 12 17 1024.5 1024.1 0.0
01/12:30pm 18.4 14.6 9.7 57 4.7 WSW 20 30 11 16 1024.8 1024.5 0.0
01/12:00pm 17.0 13.5 8.7 58 4.4 W 17 24 9 13 1025.6 1025.2 0.0
01/11:30am 16.5 12.7 9.0 61 4.0 WSW 19 24 10 13 1026.0 1025.6 0.0
01/11:00am 15.6 12.3 9.5 67 3.2 SW 17 24 9 13 1026.6 1026.3 0.0
01/10:30am 15.4 12.0 10.6 73 2.6 SW 19 24 10 13 1027.0 1026.6 0.0
01/10:00am 13.9 11.5 10.1 78 2.0 SW 13 19 7 10 1027.2 1026.8 0.0
01/09:30am 12.7 9.6 10.4 86 1.2 SW 17 22 9 12 1027.4 1026.8 0.0
01/09:00am 12.5 9.1 10.4 87 1.1 SW 19 22 10 12 1027.2 1026.6 0.0
01/08:30am 12.1 9.7 10.0 87 1.1 SW 13 19 7 10 1026.7 1026.2 0.0
01/08:00am 11.5 10.5 10.4 93 0.6 SW 6 7 3 4 1026.4 1025.8 0.0
01/07:30am 10.7 8.6 9.8 94 0.5 WSW 11 15 6 8 1026.3 1025.7 0.0
01/07:00am 11.3 10.0 10.0 92 0.7 SSE 7 17 4 9 1025.9 1025.3 0.0
01/06:30am 11.4 9.7 10.0 91 0.7 E 9 9 5 5 1025.4 1024.8 0.0
01/06:00am 12.2 10.3 10.6 90 0.9 ENE 11 15 6 8 1025.0 1024.4 0.0
01/05:30am 11.4 9.4 10.0 91 0.7 ENE 11 13 6 7 1024.9 1024.3 0.0
01/05:00am 10.9 8.8 9.8 93 0.6 E 11 11 6 6 1025.0 1024.4 0.0
01/04:30am 10.9 9.2 9.7 92 0.6 ESE 9 9 5 5 1025.1 1024.6 0.0
01/04:00am 11.5 10.3 9.6 88 1.0 SSE 6 7 3 4 1025.4 1024.8 0.0
01/03:30am 11.6 9.9 9.7 88 1.0 S 9 13 5 7 1025.6 1025.0 0.0
01/03:00am 11.3 9.5 9.6 89 0.9 S 9 11 5 6 1025.9 1025.3 0.0
01/02:30am 11.2 9.4 9.6 90 0.8 SW 9 11 5 6 1026.1 1025.5 0.0
01/02:00am 11.5 9.7 9.4 87 1.1 SW 9 11 5 6 1026.3 1025.7 0.0
01/01:30am 12.2 11.3 10.8 91 0.8 NE 6 9 3 5 1026.5 1026.0 0.0
01/01:00am 11.9 10.8 10.8 93 0.6 E 7 9 4 5 1026.6 1026.1 0.0
01/12:30am 11.6 10.1 10.5 93 0.6 ENE 9 11 5 6 1026.9 1026.3 0.0
01/12:00am 11.3 9.7 10.2 93 0.6 ENE 9 9 5 5 1027.1 1026.5 0.0
 
Date/Time
EST
Temp
°C
App
Temp
°C
Dew
Point
Rel
Hum
%
Delta-T
°C
Wind Press
QNH
hPa
Press
MSL
hPa
Rain
since 9 am
mm
Dir
 
Spd
km/h
Gust
km/h
Spd
kts
Gust
kts
30/11:30pm 10.5 8.4 9.6 94 0.5 ENE 11 11 6 6 1027.2 1026.6 0.0
30/11:00pm 10.3 8.0 8.9 91 0.7 E 11 13 6 7 1027.2 1026.6 0.0
30/10:30pm 10.0 8.0 8.6 91 0.7 ESE 9 9 5 5 1027.5 1026.9 0.0
30/10:00pm 10.8 8.9 9.1 89 0.9 E 9 11 5 6 1027.4 1026.8 0.0
30/09:30pm 10.8 9.6 9.4 91 0.7 E 6 7 3 4 1027.6 1027.0 0.0
30/09:00pm 11.2 10.1 9.8 91 0.7 NE 6 7 3 4 1027.9 1027.4 0.0
30/08:30pm 11.4 10.3 10.0 91 0.7 ENE 6 9 3 5 1027.8 1027.3 0.0
30/08:00pm 10.9 9.0 9.0 88 1.0 E 9 11 5 6 1027.7 1027.1 0.0
30/07:30pm 11.6 9.4 9.5 87 1.1 ENE 11 13 6 7 1027.5 1026.9 0.0
30/07:00pm 12.2 10.5 9.9 86 1.2 E 9 9 5 5 1027.3 1026.7 0.0
30/06:30pm 12.2 10.1 9.8 85 1.3 E 11 13 6 7 1027.0 1026.4 0.0
30/06:00pm 12.6 10.6 10.0 84 1.4 E 11 15 6 8 1026.5 1026.0 0.0
30/05:30pm 13.2 11.2 10.0 81 1.7 E 11 13 6 7 1026.6 1026.1 0.0
30/05:00pm 14.0 11.6 10.0 77 2.1 ENE 13 15 7 8 1026.4 1025.8 0.0
30/04:30pm 14.9 12.1 10.1 73 2.6 E 15 19 8 10 1026.3 1025.7 0.0
30/04:00pm 15.6 13.2 10.2 70 2.9 ENE 13 17 7 9 1026.5 1026.0 0.0
30/03:30pm 16.7 14.1 10.8 68 3.3 ENE 15 19 8 10 1026.6 1026.1 0.0
30/03:00pm 16.0 13.1 9.7 66 3.4 ENE 15 20 8 11 1026.5 1026.0 0.0
30/02:30pm 16.7 12.8 9.6 63 3.8 E 20 24 11 13 1026.5 1026.0 0.0
30/02:00pm 16.6 12.7 9.3 62 3.9 E 20 26 11 14 1026.5 1026.0 0.0
30/01:30pm 17.5 13.2 9.4 59 4.4 E 22 28 12 15 1026.5 1026.0 0.0
30/01:00pm 17.3 13.5 9.7 61 4.1 E 20 28 11 15 1026.9 1026.3 0.0
30/12:30pm 16.9 12.3 9.8 63 3.9 E 24 32 13 17 1027.4 1026.8 0.0
30/12:00pm 16.4 11.7 9.3 63 3.8 E 24 30 13 16 1027.9 1027.4 0.0
30/11:30am 16.4 11.6 10.3 67 3.3 E 26 32 14 17 1028.2 1027.7 0.0
30/11:00am 16.3 12.2 11.5 73 2.7 E 24 30 13 16 1028.7 1028.1 0.0
30/10:30am 15.4 10.5 11.4 77 2.2 E 28 33 15 18 1029.1 1028.5 0.0
30/10:00am 14.9 10.4 11.5 80 1.9 E 26 32 14 17 1029.4 1028.9 0.0
30/09:30am 14.3 10.5 11.3 82 1.7 E 22 28 12 15 1029.5 1029.0 0.0
30/09:00am 13.2 9.1 11.4 89 1.0 E 24 28 13 15 1029.8 1029.3 3.0
30/08:30am 13.0 10.3 11.7 92 0.7 E 17 22 9 12 1030.3 1029.7 3.0
30/08:00am 12.5 9.5 11.9 96 0.3 E 19 20 10 11 1029.7 1029.2 3.0
30/07:30am 11.9 9.2 11.7 99 0.1 E 17 22 9 12 1029.5 1029.0 3.0
30/07:00am 11.2 9.1 11.0 99 0.1 ENE 13 15 7 8 1029.5 1029.0 3.0
30/06:30am 10.6 7.5 10.4 99 0.1 E 17 20 9 11 1029.2 1028.7 3.0
30/06:16am 10.6 7.2 10.4 99 0.1 E 19 20 10 11 1029.0 1028.4 3.0
30/06:04am 10.7 7.3 10.5 99 0.1 E 19 22 10 12 1028.7 1028.1 3.0
30/06:00am 10.7 7.3 10.5 99 0.1 E 19 22 10 12 1028.7 1028.1 2.8
30/05:48am 10.9 7.3 10.7 99 0.1 E 20 24 11 13 1028.7 1028.1 2.8
30/05:34am 11.0 7.7 10.8 99 0.1 E 19 22 10 12 1028.7 1028.1 2.8
30/05:30am 10.9 7.5 10.7 99 0.1 E 19 20 10 11 1028.7 1028.1 2.8
30/05:23am 10.9 7.5 10.7 99 0.1 E 19 22 10 12 1028.7 1028.1 2.8
30/05:08am 11.0 7.5 10.8 99 0.1 E 20 24 11 13 1028.3 1027.8 2.8
30/05:00am 10.9 7.3 10.7 99 0.1 E 20 24 11 13 1028.3 1027.8 2.8
30/04:30am 11.1 7.8 10.9 99 0.1 E 19 20 10 11 1028.8 1028.2 2.8
30/04:00am 11.3 8.8 11.1 99 0.1 E 15 19 8 10 1029.2 1028.7 2.8
30/03:34am 11.6 8.8 11.4 99 0.1 E 17 20 9 11 1029.4 1028.9 2.8
30/03:30am 11.6 8.8 11.4 99 0.1 E 17 20 9 11 1029.4 1028.9 2.8
30/03:00am 11.7 8.9 11.5 99 0.1 E 17 22 9 12 1029.7 1029.2 2.8
30/02:41am 11.8 9.8 11.6 99 0.1 E 13 19 7 10 1029.9 1029.4 2.8
30/02:33am 11.7 9.7 11.5 99 0.1 E 13 19 7 10 1029.9 1029.4 2.8
30/02:30am 11.8 9.8 11.6 99 0.1 E 13 17 7 9 1029.9 1029.4 2.8
30/02:04am 11.7 8.4 11.5 99 0.1 E 20 24 11 13 1029.9 1029.4 2.8
30/02:00am 11.7 8.4 11.5 99 0.1 E 20 28 11 15 1029.9 1029.4 2.8
30/01:30am 11.8 9.1 11.6 99 0.1 E 17 24 9 13 1030.0 1029.5 2.8
30/01:00am 12.0 9.7 11.8 99 0.1 E 15 20 8 11 1030.4 1029.8 2.8
30/12:30am 12.0 8.8 11.8 99 0.1 E 20 26 11 14 1030.3 1029.7 2.6
30/12:23am 12.0 8.8 11.8 99 0.1 E 20 28 11 15 1030.3 1029.7 2.6
30/12:00am 12.1 9.1 11.9 99 0.1 E 19 28 10 15 1030.3 1029.7 2.6
 
Date/Time
EST
Temp
°C
App
Temp
°C
Dew
Point
Rel
Hum
%
Delta-T
°C
Wind Press
QNH
hPa
Press
MSL
hPa
Rain
since 9 am
mm
Dir
 
Spd
km/h
Gust
km/h
Spd
kts
Gust
kts
29/11:30pm 12.1 8.9 11.9 99 0.1 ESE 20 26 11 14 1030.6 1030.1 2.6
29/11:28pm 12.1 8.9 11.9 99 0.1 ESE 20 26 11 14 1030.6 1030.1 2.6
29/11:11pm 12.1 8.5 11.9 99 0.1 ESE 22 33 12 18 1030.7 1030.2 2.6
29/11:00pm 12.1 9.1 11.9 99 0.1 ESE 19 28 10 15 1030.8 1030.3 2.6
29/10:30pm 12.1 9.8 11.9 99 0.1 E 15 20 8 11 1031.0 1030.5 2.6
29/10:00pm 12.2 9.6 12.0 99 0.1 E 17 20 9 11 1030.8 1030.3 2.6
29/09:48pm 12.2 9.6 12.0 99 0.1 E 17 22 9 12 1031.0 1030.5 2.6
29/09:45pm 12.2 9.2 12.0 99 0.1 E 19 22 10 12 1031.0 1030.5 2.6
29/09:30pm 12.2 10.0 12.0 99 0.1 E 15 20 8 11 1031.0 1030.5 2.6
29/09:23pm 12.2 10.0 12.0 99 0.1 E 15 20 8 11 1031.0 1030.5 2.6
29/09:00pm 12.1 9.8 11.9 99 0.1 E 15 19 8 10 1031.2 1030.7 2.4
29/08:43pm 12.1 9.5 11.9 99 0.1 ESE 17 20 9 11 1031.1 1030.6 2.4
29/08:30pm 12.1 9.5 11.9 99 0.1 E 17 20 9 11 1031.2 1030.7 2.4
29/08:00pm 12.1 9.1 11.9 99 0.1 ESE 19 22 10 12 1031.1 1030.6 2.4
29/07:30pm 12.2 9.6 12.0 99 0.1 E 17 22 9 12 1031.0 1030.5 2.2
29/07:00pm 12.1 9.1 11.9 99 0.1 E 19 24 10 13 1031.0 1030.5 2.2
29/06:30pm 12.1 8.1 11.9 99 0.1 ESE 24 35 13 19 1030.6 1030.1 1.8
29/06:00pm 12.0 7.6 11.8 99 0.1 ESE 26 35 14 19 1030.3 1029.7 1.8
29/05:30pm 12.3 8.4 12.1 99 0.1 ESE 24 32 13 17 1029.9 1029.4 1.6
29/05:00pm 12.3 8.8 12.1 99 0.1 ESE 22 28 12 15 1029.6 1029.1 1.2
29/04:30pm 12.3 8.4 12.1 99 0.1 ESE 24 32 13 17 1029.4 1028.9 1.0
29/04:00pm 12.6 8.4 12.4 99 0.1 ESE 26 33 14 18 1029.4 1028.9 0.8
29/03:30pm 13.1 9.8 12.9 99 0.1 ESE 22 30 12 16 1029.4 1028.9 0.6
29/03:00pm 13.1 9.8 12.9 99 0.1 ESE 22 30 12 16 1029.6 1029.1 0.4
29/02:30pm 13.1 10.4 12.9 99 0.1 ESE 19 26 10 14 1030.0 1029.5 0.2
29/02:00pm 13.4 10.5 12.9 97 0.3 E 20 28 11 15 1030.4 1029.8 0.2
29/01:30pm 13.6 11.3 13.1 97 0.3 E 17 22 9 12 1030.7 1030.2 0.2
29/01:00pm 13.7 11.0 12.9 95 0.4 E 19 24 10 13 1030.9 1030.4 0.0
29/12:45pm 13.8 11.0 12.5 92 0.7 E 19 26 10 14 1031.0 1030.5 0.0
29/12:30pm 14.1 11.8 13.1 94 0.6 ESE 17 22 9 12 1031.3 1030.8 0.0
29/12:24pm 13.6 11.1 12.3 92 0.7 E 17 22 9 12 1031.4 1030.9 0.0
29/12:00pm 13.8 12.3 13.0 95 0.5 E 13 19 7 10 1031.6 1031.1 0.0
29/11:50am 13.6 10.8 12.5 93 0.6 E 19 24 10 13 1031.7 1031.2 0.0
29/11:30am 14.1 11.0 12.1 88 1.1 E 20 28 11 15 1031.9 1031.3 0.0
29/11:25am 13.9 10.7 11.8 87 1.2 E 20 28 11 15 1032.0 1031.5 0.0
29/11:12am 13.8 10.6 12.0 89 1.0 E 20 28 11 15 1032.1 1031.6 0.0

Other Formats:

Comma delimited format used in spreadsheet applications
http://www.bom.gov.au/fwo/IDQ60801/IDQ60801.95551.axf

JavaScript Object Notation format (JSON) in row-major order
http://www.bom.gov.au/fwo/IDQ60801/IDQ60801.95551.json